Budweis, Czech Republic
Current Conditions -  °F | °C
As of 8:20 PM on Friday 31 Oct 2014 (Local Time) from LOWL Reporting Station
Broken Clouds Broken Clouds  
Wind Chill: 46°   Ceiling: 30000
Heat Index: 46°   Visibility: 4mi
Dew Point: 45°   Wind: 1mph
Humidity: 93%   Direction: NA
Pressure: 30.33"   Gusts: NA
Location:  48.99°N, 14.56°E
Report Text: LOWL 311820Z VRB01KT 6000 BKN300 08/07 Q1027 BECMG 4000 BR
Loading
Personal Weather Stations






























Interactive Weather Map
Tropical Storm Tracking
New forecast layout! Learn more

10-Day Weather Forecast

Advertisements
Track Severe Weather on mobile